createdAt,value
2017-11-22T00:00:57.236Z,1010.60
2017-11-22T00:02:24.650Z,1010.54
2017-11-22T00:03:51.605Z,1010.51
2017-11-22T00:05:18.791Z,1010.51
2017-11-22T00:06:46.098Z,1010.49
2017-11-22T00:08:13.406Z,1010.48
2017-11-22T00:09:40.391Z,1010.44
2017-11-22T00:11:07.600Z,1010.43
2017-11-22T00:12:34.864Z,1010.43
2017-11-22T00:14:02.059Z,1010.42
2017-11-22T00:15:29.151Z,1010.39
2017-11-22T00:16:56.424Z,1010.38
2017-11-22T00:18:23.583Z,1010.34
2017-11-22T00:19:50.909Z,1010.36
2017-11-22T00:21:18.265Z,1010.36
2017-11-22T00:22:45.527Z,1010.38
2017-11-22T00:24:12.756Z,1010.41
2017-11-22T00:25:40.021Z,1010.40
2017-11-22T00:27:07.140Z,1010.38
2017-11-22T00:28:34.371Z,1010.36
2017-11-22T00:30:01.682Z,1010.36
2017-11-22T00:31:28.710Z,1010.32
2017-11-22T00:32:55.825Z,1010.32
2017-11-22T00:34:23.166Z,1010.31
2017-11-22T00:35:50.553Z,1010.30
2017-11-22T00:37:17.699Z,1010.27
2017-11-22T00:38:44.992Z,1010.28
2017-11-22T00:40:12.292Z,1010.23
2017-11-22T00:41:39.530Z,1010.19
2017-11-22T00:43:06.890Z,1010.17
2017-11-22T00:44:33.827Z,1010.21
2017-11-22T00:46:01.109Z,1010.16
2017-11-22T00:47:28.169Z,1010.15
2017-11-22T00:48:55.318Z,1010.11
2017-11-22T00:50:22.609Z,1010.06
2017-11-22T00:51:49.971Z,1010.03
2017-11-22T00:53:17.222Z,1010.04
2017-11-22T00:54:44.336Z,1010.01
2017-11-22T00:56:11.548Z,1010.00
2017-11-22T00:57:38.999Z,1009.94
2017-11-22T00:59:05.952Z,1009.90
2017-11-22T01:00:33.277Z,1009.87
2017-11-22T01:02:00.251Z,1009.86
2017-11-22T01:03:27.576Z,1009.84
2017-11-22T01:04:54.793Z,1009.81
2017-11-22T01:06:22.041Z,1009.80
2017-11-22T01:07:49.520Z,1009.82
2017-11-22T01:09:16.696Z,1009.82
2017-11-22T01:10:44.122Z,1009.80
2017-11-22T01:12:11.310Z,1009.79
2017-11-22T01:13:38.443Z,1009.75
2017-11-22T01:15:05.518Z,1009.69
2017-11-22T01:16:32.745Z,1009.68
2017-11-22T01:18:00.074Z,1009.68
2017-11-22T01:19:27.189Z,1009.63
2017-11-22T01:20:53.845Z,1009.61
2017-11-22T01:22:21.270Z,1009.59
2017-11-22T01:23:48.502Z,1009.59
2017-11-22T01:25:15.719Z,1009.58
2017-11-22T01:26:42.730Z,1009.52
2017-11-22T01:28:10.008Z,1009.49
2017-11-22T01:29:37.247Z,1009.49
2017-11-22T01:31:04.410Z,1009.52
2017-11-22T01:32:31.660Z,1009.51
2017-11-22T01:33:58.841Z,1009.49
2017-11-22T01:35:26.016Z,1009.52
2017-11-22T01:36:53.149Z,1009.50
2017-11-22T01:38:20.423Z,1009.48
2017-11-22T01:39:47.819Z,1009.51
2017-11-22T01:41:15.201Z,1009.48
2017-11-22T01:42:42.597Z,1009.46
2017-11-22T01:44:09.845Z,1009.47
2017-11-22T01:45:37.127Z,1009.45
2017-11-22T01:47:04.221Z,1009.40
2017-11-22T01:48:31.448Z,1009.37
2017-11-22T01:49:58.666Z,1009.33
2017-11-22T01:51:25.690Z,1009.28
2017-11-22T01:52:53.052Z,1009.21
2017-11-22T01:54:20.197Z,1009.19
2017-11-22T01:55:47.560Z,1009.13
2017-11-22T01:57:14.834Z,1009.09
2017-11-22T01:58:42.368Z,1009.04
2017-11-22T02:00:09.541Z,1009.06
2017-11-22T02:01:37.032Z,1009.08
2017-11-22T02:03:04.245Z,1009.12
2017-11-22T02:04:31.556Z,1009.16
2017-11-22T02:05:58.666Z,1009.18
2017-11-22T02:07:25.815Z,1009.17
2017-11-22T02:08:52.958Z,1009.15
2017-11-22T02:10:20.213Z,1009.06
2017-11-22T02:11:47.607Z,1009.02
2017-11-22T02:13:14.865Z,1009.02
2017-11-22T02:14:42.098Z,1009.05
2017-11-22T02:16:09.441Z,1009.05
2017-11-22T02:17:36.726Z,1009.01
2017-11-22T02:19:04.011Z,1009.00
2017-11-22T02:20:31.079Z,1008.94
2017-11-22T02:21:58.325Z,1008.89
2017-11-22T02:23:25.475Z,1008.85
2017-11-22T02:24:52.842Z,1008.82
2017-11-22T02:26:19.960Z,1008.80
2017-11-22T02:27:47.279Z,1008.77
2017-11-22T02:29:14.574Z,1008.77
2017-11-22T02:30:41.848Z,1008.75
2017-11-22T02:32:09.028Z,1008.72
2017-11-22T02:33:36.078Z,1008.66
2017-11-22T02:35:03.332Z,1008.68
2017-11-22T02:36:30.529Z,1008.64
2017-11-22T02:37:57.865Z,1008.61
2017-11-22T02:39:24.943Z,1008.60
2017-11-22T02:40:52.391Z,1008.59
2017-11-22T02:42:19.640Z,1008.57
2017-11-22T02:43:46.851Z,1008.56
2017-11-22T02:45:14.091Z,1008.53
2017-11-22T02:46:41.285Z,1008.55
2017-11-22T02:48:08.744Z,1008.55
2017-11-22T02:49:35.631Z,1008.53
2017-11-22T02:51:03.034Z,1008.56
2017-11-22T02:52:30.013Z,1008.59
2017-11-22T02:53:57.224Z,1008.60
2017-11-22T02:55:24.689Z,1008.57
2017-11-22T02:56:51.864Z,1008.56
2017-11-22T02:58:19.293Z,1008.56
2017-11-22T02:59:46.608Z,1008.52
2017-11-22T03:01:13.924Z,1008.51
2017-11-22T03:02:41.150Z,1008.47
2017-11-22T03:04:08.475Z,1008.45
2017-11-22T03:05:35.719Z,1008.45
2017-11-22T03:07:03.034Z,1008.42
2017-11-22T03:08:30.300Z,1008.41
2017-11-22T03:09:57.526Z,1008.38
2017-11-22T03:11:24.847Z,1008.31
2017-11-22T03:12:52.094Z,1008.31
2017-11-22T03:14:19.401Z,1008.32
2017-11-22T03:15:46.797Z,1008.29
2017-11-22T03:17:14.177Z,1008.28
2017-11-22T03:18:41.573Z,1008.29
2017-11-22T03:20:08.866Z,1008.29
2017-11-22T03:21:36.266Z,1008.30
2017-11-22T03:23:03.534Z,1008.30
2017-11-22T03:24:30.842Z,1008.28
2017-11-22T03:25:58.213Z,1008.26
2017-11-22T03:27:25.453Z,1008.28
2017-11-22T03:28:52.759Z,1008.29
2017-11-22T03:30:20.133Z,1008.31
2017-11-22T03:31:47.329Z,1008.31
2017-11-22T03:33:14.485Z,1008.28
2017-11-22T03:34:41.729Z,1008.29
2017-11-22T03:36:08.944Z,1008.26
2017-11-22T03:37:36.415Z,1008.25
2017-11-22T03:39:03.713Z,1008.27
2017-11-22T03:40:30.923Z,1008.23
2017-11-22T03:41:58.070Z,1008.20
2017-11-22T03:43:25.262Z,1008.22
2017-11-22T03:44:52.597Z,1008.23
2017-11-22T03:46:20.047Z,1008.27
2017-11-22T03:47:47.380Z,1008.24
2017-11-22T03:49:14.457Z,1008.22
2017-11-22T03:50:41.799Z,1008.20
2017-11-22T03:52:09.005Z,1008.19
2017-11-22T03:53:36.339Z,1008.14
2017-11-22T03:55:03.610Z,1008.10
2017-11-22T03:56:31.080Z,1008.07
2017-11-22T03:57:58.098Z,1008.04
2017-11-22T03:59:25.179Z,1008.04
2017-11-22T04:00:52.267Z,1008.01
2017-11-22T04:02:19.709Z,1007.97
2017-11-22T04:03:46.946Z,1007.92
2017-11-22T04:05:14.216Z,1007.90
2017-11-22T04:06:41.716Z,1007.89
2017-11-22T04:08:09.054Z,1007.88
2017-11-22T04:09:36.280Z,1007.85
2017-11-22T04:11:03.445Z,1007.86
2017-11-22T04:12:30.591Z,1007.86
2017-11-22T04:13:57.853Z,1007.82
2017-11-22T04:15:24.957Z,1007.78
2017-11-22T04:16:52.572Z,1007.71
2017-11-22T04:18:19.687Z,1007.67
2017-11-22T04:19:46.951Z,1007.65
2017-11-22T04:21:14.300Z,1007.60
2017-11-22T04:22:41.657Z,1007.56
2017-11-22T04:24:08.861Z,1007.54
2017-11-22T04:25:36.082Z,1007.51
2017-11-22T04:27:03.374Z,1007.54
2017-11-22T04:28:30.502Z,1007.52
2017-11-22T04:29:57.825Z,1007.47
2017-11-22T04:31:24.896Z,1007.44
2017-11-22T04:32:52.058Z,1007.42
2017-11-22T04:34:19.350Z,1007.43
2017-11-22T04:35:46.674Z,1007.47
2017-11-22T04:37:14.120Z,1007.49
2017-11-22T04:38:41.298Z,1007.53
2017-11-22T04:40:08.561Z,1007.59
2017-11-22T04:41:35.899Z,1007.59
2017-11-22T04:43:03.164Z,1007.48
2017-11-22T04:44:30.425Z,1007.43
2017-11-22T04:45:57.692Z,1007.40
2017-11-22T04:47:24.852Z,1007.36
2017-11-22T04:48:52.260Z,1007.33
2017-11-22T04:50:19.605Z,1007.38
2017-11-22T04:51:46.857Z,1007.45
2017-11-22T04:53:14.174Z,1007.47
2017-11-22T04:54:41.473Z,1007.50
2017-11-22T04:56:08.732Z,1007.51
2017-11-22T04:57:35.956Z,1007.55
2017-11-22T04:59:03.146Z,1007.57
2017-11-22T05:00:30.496Z,1007.59
2017-11-22T05:01:57.640Z,1007.57
2017-11-22T05:03:25.065Z,1007.60
2017-11-22T05:04:52.261Z,1007.56
2017-11-22T05:06:19.490Z,1007.58
2017-11-22T05:07:46.827Z,1007.53
2017-11-22T05:09:14.117Z,1007.52
2017-11-22T05:10:41.517Z,1007.49
2017-11-22T05:12:08.906Z,1007.49
2017-11-22T05:13:36.124Z,1007.48
2017-11-22T05:15:03.371Z,1007.45
2017-11-22T05:16:30.824Z,1007.42
2017-11-22T05:17:58.035Z,1007.40
2017-11-22T05:19:25.061Z,1007.40
2017-11-22T05:20:52.447Z,1007.39
2017-11-22T05:22:19.764Z,1007.36
2017-11-22T05:23:47.234Z,1007.35
2017-11-22T05:25:14.667Z,1007.30
2017-11-22T05:26:41.900Z,1007.27
2017-11-22T05:28:09.179Z,1007.25
2017-11-22T05:29:36.438Z,1007.25
2017-11-22T05:31:03.656Z,1007.26
2017-11-22T05:32:30.903Z,1007.23
2017-11-22T05:33:58.217Z,1007.23
2017-11-22T05:35:25.455Z,1007.20
2017-11-22T05:36:52.642Z,1007.22
2017-11-22T05:38:20.228Z,1007.27
2017-11-22T05:39:47.343Z,1007.32
2017-11-22T05:41:14.626Z,1007.29
2017-11-22T05:42:42.040Z,1007.31
2017-11-22T05:44:09.424Z,1007.30
2017-11-22T05:45:36.877Z,1007.32
2017-11-22T05:47:04.188Z,1007.29
2017-11-22T05:48:31.605Z,1007.27
2017-11-22T05:49:58.881Z,1007.27
2017-11-22T05:51:26.109Z,1007.27
2017-11-22T05:52:53.420Z,1007.29
2017-11-22T05:54:20.741Z,1007.24
2017-11-22T05:55:48.025Z,1007.27
2017-11-22T05:57:15.399Z,1007.24
2017-11-22T05:58:42.553Z,1007.22
2017-11-22T06:00:09.990Z,1007.24
2017-11-22T06:01:37.173Z,1007.23
2017-11-22T06:03:04.547Z,1007.27
2017-11-22T06:04:31.668Z,1007.25
2017-11-22T06:05:58.973Z,1007.25
2017-11-22T06:07:26.235Z,1007.26
2017-11-22T06:08:53.567Z,1007.24
2017-11-22T06:10:20.967Z,1007.23
2017-11-22T06:11:48.218Z,1007.25
2017-11-22T06:13:15.605Z,1007.26
2017-11-22T06:14:42.973Z,1007.23
2017-11-22T06:16:10.435Z,1007.26
2017-11-22T06:17:37.715Z,1007.28
2017-11-22T06:19:04.979Z,1007.26
2017-11-22T06:20:32.322Z,1007.29
2017-11-22T06:21:59.567Z,1007.27
2017-11-22T06:23:26.780Z,1007.26
2017-11-22T06:24:54.080Z,1007.26
2017-11-22T06:26:21.331Z,1007.25
2017-11-22T06:27:48.563Z,1007.26
2017-11-22T06:29:15.993Z,1007.26
2017-11-22T06:30:43.384Z,1007.27
2017-11-22T06:32:10.720Z,1007.30
2017-11-22T06:33:38.017Z,1007.31
2017-11-22T06:35:05.340Z,1007.34
2017-11-22T06:36:32.624Z,1007.33
2017-11-22T06:37:59.945Z,1007.33
2017-11-22T06:39:27.317Z,1007.32
2017-11-22T06:40:54.559Z,1007.32
2017-11-22T06:42:21.879Z,1007.29
2017-11-22T06:43:49.248Z,1007.27
2017-11-22T06:45:16.632Z,1007.29
2017-11-22T06:46:43.975Z,1007.27
2017-11-22T06:48:11.250Z,1007.25
2017-11-22T06:49:38.617Z,1007.25
2017-11-22T06:51:05.922Z,1007.27
2017-11-22T06:52:33.331Z,1007.29
2017-11-22T06:54:00.743Z,1007.30
2017-11-22T06:55:27.921Z,1007.36
2017-11-22T06:56:55.037Z,1007.35
2017-11-22T06:58:22.375Z,1007.39
2017-11-22T06:59:50.064Z,1007.37
2017-11-22T07:01:17.705Z,1007.39
2017-11-22T07:02:45.016Z,1007.38
2017-11-22T07:04:12.342Z,1007.37
2017-11-22T07:05:39.547Z,1007.34
2017-11-22T07:07:07.137Z,1007.30
2017-11-22T07:08:34.026Z,1007.27
2017-11-22T07:10:01.482Z,1007.30
2017-11-22T07:11:28.727Z,1007.34
2017-11-22T07:12:55.910Z,1007.35
2017-11-22T07:14:23.316Z,1007.36
2017-11-22T07:15:50.612Z,1007.36
2017-11-22T07:17:17.881Z,1007.39
2017-11-22T07:18:45.291Z,1007.38
2017-11-22T07:20:12.662Z,1007.39
2017-11-22T07:21:40.051Z,1007.38
2017-11-22T07:23:07.424Z,1007.42
2017-11-22T07:24:34.731Z,1007.44
2017-11-22T07:26:01.932Z,1007.46
2017-11-22T07:27:29.503Z,1007.46
2017-11-22T07:28:56.828Z,1007.46
2017-11-22T07:30:24.131Z,1007.48
2017-11-22T07:31:51.503Z,1007.47
2017-11-22T07:33:18.681Z,1007.45
2017-11-22T07:34:46.111Z,1007.44
2017-11-22T07:36:13.451Z,1007.46
2017-11-22T07:37:40.841Z,1007.49
2017-11-22T07:39:08.448Z,1007.51
2017-11-22T07:40:35.643Z,1007.51
2017-11-22T07:42:02.921Z,1007.51
2017-11-22T07:43:29.885Z,1007.50
2017-11-22T07:44:57.176Z,1007.48
2017-11-22T07:46:24.654Z,1007.45
2017-11-22T07:47:51.912Z,1007.49
2017-11-22T07:49:19.283Z,1007.48
2017-11-22T07:50:46.630Z,1007.46
2017-11-22T07:52:13.897Z,1007.44
2017-11-22T07:53:41.254Z,1007.41
2017-11-22T07:55:08.748Z,1007.48
2017-11-22T07:56:36.089Z,1007.51
2017-11-22T07:58:03.194Z,1007.50
2017-11-22T07:59:30.294Z,1007.50
2017-11-22T08:00:57.539Z,1007.49
2017-11-22T08:02:24.741Z,1007.49
2017-11-22T08:03:51.922Z,1007.48
2017-11-22T08:05:19.220Z,1007.50
2017-11-22T08:06:46.565Z,1007.52
2017-11-22T08:08:13.547Z,1007.54
2017-11-22T08:09:40.926Z,1007.54
2017-11-22T08:11:08.238Z,1007.56
2017-11-22T08:12:35.850Z,1007.54
2017-11-22T08:14:03.083Z,1007.52
2017-11-22T08:15:30.559Z,1007.55
2017-11-22T08:16:57.722Z,1007.59
2017-11-22T08:18:24.820Z,1007.61
2017-11-22T08:19:52.229Z,1007.69
2017-11-22T08:21:19.494Z,1007.72
2017-11-22T08:22:46.859Z,1007.76
2017-11-22T08:24:14.212Z,1007.76
2017-11-22T08:25:41.474Z,1007.80
2017-11-22T08:27:08.835Z,1007.80
2017-11-22T08:28:36.256Z,1007.79
2017-11-22T08:30:03.444Z,1007.79
2017-11-22T08:31:30.694Z,1007.77
2017-11-22T08:32:58.087Z,1007.78
2017-11-22T08:34:25.089Z,1007.84
2017-11-22T08:35:52.487Z,1007.84
2017-11-22T08:37:19.821Z,1007.85
2017-11-22T08:38:47.248Z,1007.89
2017-11-22T08:40:14.432Z,1007.89
2017-11-22T08:41:41.862Z,1007.86
2017-11-22T08:43:08.983Z,1007.90
2017-11-22T08:44:36.435Z,1007.88
2017-11-22T08:46:03.762Z,1007.85
2017-11-22T08:47:30.912Z,1007.84
2017-11-22T08:48:58.121Z,1007.82
2017-11-22T08:50:25.292Z,1007.83
2017-11-22T08:51:52.443Z,1007.88
2017-11-22T08:53:19.587Z,1007.90
2017-11-22T08:54:47.017Z,1007.87
2017-11-22T08:56:14.267Z,1007.86
2017-11-22T08:57:41.686Z,1007.87
2017-11-22T08:59:09.004Z,1007.88
2017-11-22T09:00:36.248Z,1007.93
2017-11-22T09:02:03.335Z,1007.98
2017-11-22T09:03:30.499Z,1008.03
2017-11-22T09:04:57.901Z,1008.05
2017-11-22T09:06:25.022Z,1008.06
2017-11-22T09:07:52.152Z,1008.08
2017-11-22T09:09:19.620Z,1008.14
2017-11-22T09:10:46.911Z,1008.13
2017-11-22T09:12:14.305Z,1008.22
2017-11-22T09:13:41.592Z,1008.27
2017-11-22T09:15:09.103Z,1008.20
2017-11-22T09:16:36.007Z,1008.19
2017-11-22T09:18:03.399Z,1008.23
2017-11-22T09:19:30.811Z,1008.24
2017-11-22T09:20:57.951Z,1008.25
2017-11-22T09:22:25.135Z,1008.24
2017-11-22T09:23:52.258Z,1008.22
2017-11-22T09:25:19.382Z,1008.22
2017-11-22T09:26:46.540Z,1008.19
2017-11-22T09:28:14.062Z,1008.20
2017-11-22T09:29:41.057Z,1008.19
2017-11-22T09:31:08.549Z,1008.16
2017-11-22T09:32:35.854Z,1008.15
2017-11-22T09:34:03.114Z,1008.18
2017-11-22T09:35:30.435Z,1008.17
2017-11-22T09:36:57.682Z,1008.20
2017-11-22T09:38:25.301Z,1008.16
2017-11-22T09:39:52.507Z,1008.19
2017-11-22T09:41:19.912Z,1008.25
2017-11-22T09:42:47.318Z,1008.24
2017-11-22T09:44:14.870Z,1008.23
2017-11-22T09:45:42.121Z,1008.26
2017-11-22T09:47:09.492Z,1008.27
2017-11-22T09:48:36.910Z,1008.25
2017-11-22T09:50:04.187Z,1008.20
2017-11-22T09:51:31.559Z,1008.20
2017-11-22T09:52:58.810Z,1008.21
2017-11-22T09:54:25.856Z,1008.24
2017-11-22T09:55:53.354Z,1008.28
2017-11-22T09:57:20.582Z,1008.31
2017-11-22T09:58:48.027Z,1008.32
2017-11-22T10:00:15.129Z,1008.37
2017-11-22T10:01:42.291Z,1008.35
2017-11-22T10:03:09.553Z,1008.33
2017-11-22T10:04:36.878Z,1008.35
2017-11-22T10:06:04.258Z,1008.38
2017-11-22T10:07:31.698Z,1008.42
2017-11-22T10:08:59.112Z,1008.43
2017-11-22T10:10:26.148Z,1008.43
2017-11-22T10:11:53.471Z,1008.40
2017-11-22T10:13:20.791Z,1008.44
2017-11-22T10:14:48.126Z,1008.46
2017-11-22T10:16:15.662Z,1008.47
2017-11-22T10:17:42.920Z,1008.49
2017-11-22T10:19:10.467Z,1008.46
2017-11-22T10:20:37.846Z,1008.45
2017-11-22T10:22:05.255Z,1008.42
2017-11-22T10:23:32.678Z,1008.41
2017-11-22T10:25:00.097Z,1008.40
2017-11-22T10:26:27.279Z,1008.36
2017-11-22T10:27:54.801Z,1008.36
2017-11-22T10:29:22.109Z,1008.38
2017-11-22T10:30:49.436Z,1008.42
2017-11-22T10:32:16.722Z,1008.38
2017-11-22T10:33:44.100Z,1008.38
2017-11-22T10:35:11.505Z,1008.41
2017-11-22T10:36:38.858Z,1008.33
2017-11-22T10:38:06.251Z,1008.29
2017-11-22T10:39:33.531Z,1008.26
2017-11-22T10:41:01.026Z,1008.30
2017-11-22T10:42:28.311Z,1008.29
2017-11-22T10:43:55.451Z,1008.29
2017-11-22T10:45:22.882Z,1008.34
2017-11-22T10:46:50.158Z,1008.34
2017-11-22T10:48:17.609Z,1008.38
2017-11-22T10:49:44.950Z,1008.42
2017-11-22T10:51:12.079Z,1008.40
2017-11-22T10:52:39.434Z,1008.41
2017-11-22T10:54:06.730Z,1008.47
2017-11-22T10:55:34.286Z,1008.45
2017-11-22T10:57:01.424Z,1008.46
2017-11-22T10:58:28.664Z,1008.51
2017-11-22T10:59:56.017Z,1008.49
2017-11-22T11:01:23.485Z,1008.49
2017-11-22T11:02:50.756Z,1008.48
2017-11-22T11:04:18.120Z,1008.49
2017-11-22T11:05:45.656Z,1008.46
2017-11-22T11:07:12.958Z,1008.49
2017-11-22T11:08:40.032Z,1008.50
2017-11-22T11:10:07.405Z,1008.47
2017-11-22T11:11:34.953Z,1008.47
2017-11-22T11:13:02.261Z,1008.47
2017-11-22T11:14:29.652Z,1008.48
2017-11-22T11:15:56.944Z,1008.49
2017-11-22T11:17:24.284Z,1008.48
2017-11-22T11:18:51.609Z,1008.49
2017-11-22T11:20:18.786Z,1008.47
2017-11-22T11:21:46.232Z,1008.50
2017-11-22T11:23:13.586Z,1008.48
2017-11-22T11:24:40.890Z,1008.50
2017-11-22T11:26:08.334Z,1008.50
2017-11-22T11:27:35.514Z,1008.52
2017-11-22T11:29:02.957Z,1008.56
2017-11-22T11:30:30.234Z,1008.50
2017-11-22T11:31:57.412Z,1008.52
2017-11-22T11:33:24.834Z,1008.51
2017-11-22T11:34:52.220Z,1008.49
2017-11-22T11:36:19.588Z,1008.49
2017-11-22T11:37:46.876Z,1008.51
2017-11-22T11:39:14.499Z,1008.58
2017-11-22T11:40:41.643Z,1008.59
2017-11-22T11:42:08.750Z,1008.57
2017-11-22T11:43:36.211Z,1008.59
2017-11-22T11:45:03.531Z,1008.61
2017-11-22T11:46:30.766Z,1008.60
2017-11-22T11:47:57.882Z,1008.59
2017-11-22T11:49:25.057Z,1008.60
2017-11-22T11:50:52.439Z,1008.60
2017-11-22T11:52:19.634Z,1008.61
2017-11-22T11:53:47.061Z,1008.63
2017-11-22T11:55:14.413Z,1008.62
2017-11-22T11:56:41.690Z,1008.60
2017-11-22T11:58:09.035Z,1008.59
2017-11-22T11:59:36.376Z,1008.60
2017-11-22T12:01:03.679Z,1008.61
2017-11-22T12:02:31.127Z,1008.61
2017-11-22T12:03:58.506Z,1008.63
2017-11-22T12:05:25.777Z,1008.65
2017-11-22T12:06:53.059Z,1008.65
2017-11-22T12:08:20.166Z,1008.66
2017-11-22T12:09:47.591Z,1008.68
2017-11-22T12:11:15.040Z,1008.69
2017-11-22T12:12:42.336Z,1008.70
2017-11-22T12:14:09.617Z,1008.68
2017-11-22T12:15:37.030Z,1008.69
2017-11-22T12:17:04.347Z,1008.69
2017-11-22T12:18:31.657Z,1008.70
2017-11-22T12:19:58.876Z,1008.69
2017-11-22T12:21:26.143Z,1008.74
2017-11-22T12:22:53.626Z,1008.76
2017-11-22T12:24:21.081Z,1008.73
2017-11-22T12:25:48.480Z,1008.76
2017-11-22T12:27:15.807Z,1008.79
2017-11-22T12:28:43.124Z,1008.79
2017-11-22T12:30:10.626Z,1008.82
2017-11-22T12:31:37.970Z,1008.87
2017-11-22T12:33:05.382Z,1008.87
2017-11-22T12:34:32.632Z,1008.84
2017-11-22T12:36:00.009Z,1008.82
2017-11-22T12:37:27.424Z,1008.86
2017-11-22T12:38:54.757Z,1008.84
2017-11-22T12:40:21.964Z,1008.83
2017-11-22T12:41:49.239Z,1008.81
2017-11-22T12:43:16.744Z,1008.82
2017-11-22T12:44:44.059Z,1008.83
2017-11-22T12:46:11.282Z,1008.82
2017-11-22T12:47:38.731Z,1008.82
2017-11-22T12:49:06.170Z,1008.84
2017-11-22T12:50:33.557Z,1008.85
2017-11-22T12:52:00.962Z,1008.83
2017-11-22T12:53:28.247Z,1008.84
2017-11-22T12:54:55.308Z,1008.81
2017-11-22T12:56:22.541Z,1008.86
2017-11-22T12:57:49.811Z,1008.84
2017-11-22T12:59:17.212Z,1008.89
2017-11-22T13:00:44.655Z,1008.87
2017-11-22T13:02:11.906Z,1008.85
2017-11-22T13:03:39.462Z,1008.86
2017-11-22T13:05:06.769Z,1008.88
2017-11-22T13:06:34.276Z,1008.85
2017-11-22T13:08:01.414Z,1008.89
2017-11-22T13:09:28.718Z,1008.89
2017-11-22T13:10:56.060Z,1008.89
2017-11-22T13:12:23.323Z,1008.91
2017-11-22T13:13:50.654Z,1008.91
2017-11-22T13:15:18.067Z,1008.94
2017-11-22T13:16:45.436Z,1008.96
2017-11-22T13:18:12.751Z,1008.96
2017-11-22T13:19:40.136Z,1008.95
2017-11-22T13:21:07.522Z,1008.96
2017-11-22T13:22:34.756Z,1008.93
2017-11-22T13:24:02.064Z,1008.94
2017-11-22T13:25:29.281Z,1008.94
2017-11-22T13:26:56.671Z,1008.94
2017-11-22T13:28:23.872Z,1008.97
2017-11-22T13:29:51.191Z,1008.99
2017-11-22T13:31:18.456Z,1008.99
2017-11-22T13:32:45.722Z,1008.99
2017-11-22T13:34:12.971Z,1008.97
2017-11-22T13:35:40.290Z,1008.94
2017-11-22T13:37:07.524Z,1008.97
2017-11-22T13:38:34.953Z,1008.96
2017-11-22T13:40:02.298Z,1008.99
2017-11-22T13:41:29.703Z,1008.96
2017-11-22T13:42:57.000Z,1008.96
2017-11-22T13:44:24.434Z,1008.92
2017-11-22T13:45:51.978Z,1008.91
2017-11-22T13:47:19.199Z,1008.96
2017-11-22T13:48:46.570Z,1008.95
2017-11-22T13:50:13.738Z,1008.96
2017-11-22T13:51:41.077Z,1009.01
2017-11-22T13:53:08.529Z,1009.06
2017-11-22T13:54:35.748Z,1009.09
2017-11-22T13:56:03.078Z,1008.98
2017-11-22T13:57:30.163Z,1009.00
2017-11-22T13:58:57.345Z,1009.02
2017-11-22T14:00:24.753Z,1009.00
2017-11-22T14:01:51.993Z,1008.96
2017-11-22T14:03:19.409Z,1008.91
2017-11-22T14:04:46.793Z,1008.94
2017-11-22T14:06:14.192Z,1008.87
2017-11-22T14:07:41.366Z,1009.06
2017-11-22T14:09:08.868Z,1009.21
2017-11-22T14:10:36.133Z,1009.11
2017-11-22T14:12:03.568Z,1009.00
2017-11-22T14:13:30.770Z,1009.08
2017-11-22T14:14:57.988Z,1009.14
2017-11-22T14:16:25.150Z,1009.05
2017-11-22T14:17:52.477Z,1008.98
2017-11-22T14:19:19.832Z,1009.17
2017-11-22T14:20:46.978Z,1009.29
2017-11-22T14:22:14.303Z,1009.24
2017-11-22T14:23:41.703Z,1009.20
2017-11-22T14:25:09.089Z,1009.14
2017-11-22T14:26:36.448Z,1009.13
2017-11-22T14:28:03.765Z,1009.15
2017-11-22T14:29:31.018Z,1009.10
2017-11-22T14:30:58.336Z,1009.07
2017-11-22T14:32:25.596Z,1008.89
2017-11-22T14:33:52.946Z,1008.88
2017-11-22T14:35:20.206Z,1008.97
2017-11-22T14:36:47.278Z,1009.03
2017-11-22T14:38:14.635Z,1009.09
2017-11-22T14:39:42.034Z,1009.12
2017-11-22T14:41:09.514Z,1009.10
2017-11-22T14:42:36.856Z,1009.11
2017-11-22T14:44:04.162Z,1009.08
2017-11-22T14:45:31.401Z,1009.09
2017-11-22T14:46:58.675Z,1009.09
2017-11-22T14:48:25.778Z,1009.14
2017-11-22T14:49:53.088Z,1009.08
2017-11-22T14:51:20.512Z,1009.17
2017-11-22T14:52:47.783Z,1009.20
2017-11-22T14:54:15.185Z,1009.16
2017-11-22T14:55:42.264Z,1009.20
2017-11-22T14:57:09.786Z,1009.17
2017-11-22T14:58:37.004Z,1009.20
2017-11-22T15:00:04.483Z,1009.24
2017-11-22T15:01:31.605Z,1009.22
2017-11-22T15:02:58.922Z,1009.14
2017-11-22T15:04:26.152Z,1009.16
2017-11-22T15:05:53.375Z,1009.19
2017-11-22T15:07:20.680Z,1009.20
2017-11-22T15:08:47.952Z,1009.16
2017-11-22T15:10:15.088Z,1009.18
2017-11-22T15:11:42.521Z,1009.12
2017-11-22T15:13:09.862Z,1009.15
2017-11-22T15:14:37.095Z,1009.11
2017-11-22T15:16:04.548Z,1009.16
2017-11-22T15:17:31.660Z,1009.21
2017-11-22T15:18:59.014Z,1009.21
2017-11-22T15:20:26.376Z,1009.20
2017-11-22T15:21:53.619Z,1009.20
2017-11-22T15:23:20.604Z,1009.21
2017-11-22T15:24:47.908Z,1009.20
2017-11-22T15:26:14.846Z,1009.19
2017-11-22T15:27:42.059Z,1009.18
2017-11-22T15:29:09.397Z,1009.20
2017-11-22T15:30:36.839Z,1009.23
2017-11-22T15:32:04.165Z,1009.24
2017-11-22T15:33:31.310Z,1009.25
2017-11-22T15:34:58.483Z,1009.24
2017-11-22T15:36:25.597Z,1009.18
2017-11-22T15:37:52.782Z,1009.09
2017-11-22T15:39:20.124Z,1009.15
2017-11-22T15:40:47.528Z,1009.18
2017-11-22T15:42:14.951Z,1009.15
2017-11-22T15:43:42.381Z,1009.18
2017-11-22T15:45:09.410Z,1009.19
2017-11-22T15:46:36.731Z,1009.17
2017-11-22T15:48:03.980Z,1009.14
2017-11-22T15:49:31.510Z,1009.18
2017-11-22T15:50:58.632Z,1009.18
2017-11-22T15:52:25.943Z,1009.16
2017-11-22T15:53:53.267Z,1009.17
2017-11-22T15:55:20.417Z,1009.13
2017-11-22T15:56:47.761Z,1009.13
2017-11-22T15:58:15.059Z,1009.13
2017-11-22T15:59:42.263Z,1009.09
2017-11-22T16:01:09.714Z,1009.09
2017-11-22T16:02:37.035Z,1009.12
2017-11-22T16:04:04.412Z,1009.11
2017-11-22T16:05:31.592Z,1009.10
2017-11-22T16:06:58.864Z,1009.08
2017-11-22T16:08:26.083Z,1009.07
2017-11-22T16:09:53.406Z,1009.09
2017-11-22T16:11:20.687Z,1009.07
2017-11-22T16:12:48.012Z,1009.08
2017-11-22T16:14:15.513Z,1009.10
2017-11-22T16:15:42.687Z,1009.14
2017-11-22T16:17:10.172Z,1009.11
2017-11-22T16:18:37.357Z,1009.11
2017-11-22T16:20:04.854Z,1009.10
2017-11-22T16:21:31.984Z,1009.09
2017-11-22T16:22:59.378Z,1009.10
2017-11-22T16:24:26.658Z,1009.09
2017-11-22T16:25:53.957Z,1009.10
2017-11-22T16:27:21.416Z,1009.15
2017-11-22T16:28:48.446Z,1009.17
2017-11-22T16:30:15.557Z,1009.20
2017-11-22T16:31:43.063Z,1009.19
2017-11-22T16:33:10.443Z,1009.20
2017-11-22T16:34:37.856Z,1009.21
2017-11-22T16:36:05.154Z,1009.19
2017-11-22T16:37:32.457Z,1009.23
2017-11-22T16:38:59.670Z,1009.28
2017-11-22T16:40:27.010Z,1009.33
2017-11-22T16:41:54.278Z,1009.34
2017-11-22T16:43:21.470Z,1009.36
2017-11-22T16:44:48.819Z,1009.39
2017-11-22T16:46:16.253Z,1009.38
2017-11-22T16:47:43.474Z,1009.39
2017-11-22T16:49:10.895Z,1009.38
2017-11-22T16:50:38.113Z,1009.40
2017-11-22T16:52:05.489Z,1009.39
2017-11-22T16:53:32.787Z,1009.39
2017-11-22T16:55:00.104Z,1009.42
2017-11-22T16:56:27.468Z,1009.45
2017-11-22T16:57:54.587Z,1009.46
2017-11-22T16:59:21.714Z,1009.44
2017-11-22T17:00:49.159Z,1009.42
2017-11-22T17:02:16.629Z,1009.47
2017-11-22T17:03:43.924Z,1009.48
2017-11-22T17:05:11.257Z,1009.49
2017-11-22T17:06:38.659Z,1009.52
2017-11-22T17:08:06.174Z,1009.52
2017-11-22T17:09:33.455Z,1009.50
2017-11-22T17:11:00.768Z,1009.51
2017-11-22T17:12:28.028Z,1009.49
2017-11-22T17:13:55.234Z,1009.46
2017-11-22T17:15:22.660Z,1009.49
2017-11-22T17:16:50.123Z,1009.44
2017-11-22T17:18:17.143Z,1009.44
2017-11-22T17:19:44.388Z,1009.46
2017-11-22T17:21:11.834Z,1009.49
2017-11-22T17:22:39.051Z,1009.47
2017-11-22T17:24:06.566Z,1009.44
2017-11-22T17:25:33.675Z,1009.40
2017-11-22T17:27:00.949Z,1009.43
2017-11-22T17:28:28.192Z,1009.43
2017-11-22T17:29:55.503Z,1009.43
2017-11-22T17:31:22.742Z,1009.44
2017-11-22T17:32:50.103Z,1009.44
2017-11-22T17:34:17.404Z,1009.42
2017-11-22T17:35:44.715Z,1009.43